Red House, Nevada
Current Conditions -  °F | °C
As of 10:56 AM on Sunday 21 Dec 2014 (Local Time) from KWMC Reporting Station
Overcast Overcast  
Wind Chill: 53°   Ceiling: 5000
Heat Index: 53°   Visibility: 10mi
Dew Point: 41°   Wind: 20mph
Humidity: 64%   Direction: 220°SW
Pressure: 30.1"   Gusts: 29mph
Location:  41.013°N, 117.293°W
Report Text: KWMC 211856Z AUTO 22017G25KT 10SM SCT039 OVC050 12/05 A3010 RMK AO2 SLP182 T01170050
Loading
Personal Weather Stations






























Interactive Weather Map New forecast layout! Learn more

10-Day Weather Forecast

Advertisements
Track Severe Weather on mobile